createdAt,value
2022-10-03T00:03:11.184Z,8.65
2022-10-03T00:08:46.805Z,9.30
2022-10-03T00:16:50.719Z,7.18
2022-10-03T00:22:18.736Z,7.95
2022-10-03T00:28:48.844Z,8.40
2022-10-03T00:34:22.713Z,8.00
2022-10-03T00:41:12.929Z,7.18
2022-10-03T00:53:32.551Z,8.82
2022-10-03T01:00:12.769Z,6.68
2022-10-03T01:06:54.021Z,6.15
2022-10-03T01:12:28.377Z,6.37
2022-10-03T01:20:58.716Z,7.30
2022-10-03T01:26:33.493Z,8.02
2022-10-03T01:31:46.547Z,8.15
2022-10-03T01:37:10.825Z,8.63
2022-10-03T01:42:20.793Z,8.68
2022-10-03T01:47:59.963Z,9.55
2022-10-03T01:53:14.414Z,8.25
2022-10-03T02:01:33.175Z,9.13
2022-10-03T02:13:27.997Z,7.95
2022-10-03T02:19:12.827Z,8.77
2022-10-03T02:25:05.307Z,7.55
2022-10-03T02:30:19.256Z,7.82
2022-10-03T02:39:31.433Z,8.13
2022-10-03T02:45:10.288Z,7.97
2022-10-03T02:54:10.075Z,8.43
2022-10-03T02:59:44.582Z,8.35
2022-10-03T03:10:54.879Z,8.32
2022-10-03T03:17:56.607Z,7.62
2022-10-03T03:24:58.610Z,7.45
2022-10-03T03:30:09.604Z,8.05
2022-10-03T03:36:43.275Z,8.60
2022-10-03T03:42:08.989Z,7.90
2022-10-03T03:50:05.951Z,7.43
2022-10-03T03:56:52.259Z,6.10
2022-10-03T04:02:41.756Z,5.87
2022-10-03T04:14:42.154Z,5.72
2022-10-03T04:27:56.771Z,4.82
2022-10-03T04:35:53.591Z,4.05
2022-10-03T04:41:10.876Z,5.85
2022-10-03T04:46:27.244Z,5.28
2022-10-03T04:51:53.375Z,5.65
2022-10-03T04:57:08.452Z,4.80
2022-10-03T05:02:38.681Z,4.75
2022-10-03T05:11:08.760Z,5.45
2022-10-03T05:16:37.456Z,6.30
2022-10-03T05:21:55.885Z,5.37
2022-10-03T05:27:06.980Z,5.85
2022-10-03T05:32:44.365Z,5.78
2022-10-03T05:41:09.556Z,5.57
2022-10-03T05:46:39.741Z,4.55
2022-10-03T05:51:57.524Z,5.95
2022-10-03T05:57:37.799Z,6.03
2022-10-03T06:03:17.303Z,5.60
2022-10-03T06:10:00.301Z,5.18
2022-10-03T06:15:30.527Z,4.65
2022-10-03T06:22:44.844Z,5.30
2022-10-03T06:33:09.622Z,6.40
2022-10-03T06:48:31.345Z,5.30
2022-10-03T07:00:49.262Z,5.28
2022-10-03T07:11:59.756Z,6.55
2022-10-03T07:17:35.371Z,10.75
2022-10-03T07:24:47.433Z,7.70
2022-10-03T07:30:16.061Z,4.97
2022-10-03T07:37:54.684Z,5.20
2022-10-03T07:46:01.490Z,4.40
2022-10-03T07:51:12.623Z,5.37
2022-10-03T07:56:49.849Z,5.43
2022-10-03T08:04:01.735Z,5.12
2022-10-03T08:10:45.089Z,5.43
2022-10-03T08:19:10.370Z,5.37
2022-10-03T08:35:02.673Z,4.87
2022-10-03T08:47:11.233Z,5.32
2022-10-03T08:56:13.468Z,5.35
2022-10-03T09:03:31.891Z,4.37
2022-10-03T09:11:41.611Z,4.65
2022-10-03T09:20:23.827Z,6.82
2022-10-03T09:27:14.240Z,5.43
2022-10-03T09:32:56.859Z,5.62
2022-10-03T09:39:07.792Z,4.70
2022-10-03T09:48:37.764Z,4.47
2022-10-03T09:56:29.263Z,5.03
2022-10-03T10:02:14.786Z,4.10
2022-10-03T10:07:52.950Z,5.25
2022-10-03T10:16:48.551Z,5.95
2022-10-03T10:27:47.371Z,5.20
2022-10-03T10:33:26.542Z,5.47
2022-10-03T10:44:58.090Z,4.75
2022-10-03T10:53:16.217Z,5.07
2022-10-03T10:58:57.355Z,4.43
2022-10-03T11:06:09.129Z,5.80
2022-10-03T11:12:58.057Z,4.82
2022-10-03T11:21:45.305Z,5.10
2022-10-03T11:27:33.770Z,4.40
2022-10-03T11:33:12.516Z,4.45
2022-10-03T11:38:24.017Z,5.12
2022-10-03T11:44:35.928Z,5.22
2022-10-03T11:52:33.327Z,4.53
2022-10-03T11:57:38.961Z,4.85
2022-10-03T12:03:21.777Z,4.75
2022-10-03T12:08:52.290Z,4.18
2022-10-03T12:17:31.773Z,6.12
2022-10-03T12:25:24.175Z,4.75
2022-10-03T12:30:29.572Z,3.75
2022-10-03T12:44:08.583Z,4.30
2022-10-03T12:51:17.737Z,4.10
2022-10-03T12:58:05.973Z,4.43
2022-10-03T13:03:25.555Z,4.70
2022-10-03T13:08:58.291Z,4.70
2022-10-03T13:16:26.563Z,4.90
2022-10-03T13:21:53.539Z,4.70
2022-10-03T13:27:28.300Z,4.18
2022-10-03T13:32:37.044Z,3.42
2022-10-03T13:38:18.833Z,3.65
2022-10-03T13:43:27.175Z,3.90
2022-10-03T13:48:29.457Z,4.65
2022-10-03T13:56:15.273Z,4.03
2022-10-03T14:01:40.876Z,4.50
2022-10-03T14:12:06.265Z,4.40
2022-10-03T14:22:43.225Z,4.18
2022-10-03T14:33:03.547Z,4.70
2022-10-03T14:39:47.922Z,6.32
2022-10-03T14:44:54.938Z,3.83
2022-10-03T14:50:00.053Z,6.22
2022-10-03T14:56:23.751Z,4.70
2022-10-03T15:07:12.947Z,4.68
2022-10-03T15:12:27.680Z,4.20
2022-10-03T15:17:35.276Z,4.15
2022-10-03T15:23:02.541Z,5.82
2022-10-03T15:28:08.560Z,7.37
2022-10-03T15:33:33.009Z,4.32
2022-10-03T15:38:39.090Z,4.05
2022-10-03T15:43:56.099Z,4.05
2022-10-03T15:49:01.371Z,5.55
2022-10-03T15:54:08.255Z,5.47
2022-10-03T15:59:19.333Z,5.22
2022-10-03T16:04:37.609Z,5.90
2022-10-03T16:10:04.483Z,5.43
2022-10-03T16:15:50.465Z,8.27
2022-10-03T16:20:58.219Z,7.90
2022-10-03T16:26:05.190Z,6.70
2022-10-03T16:31:19.539Z,7.95
2022-10-03T16:36:21.016Z,6.50
2022-10-03T16:41:25.743Z,6.97
2022-10-03T16:46:33.299Z,5.85
2022-10-03T16:51:59.286Z,9.38
2022-10-03T16:57:05.083Z,6.78
2022-10-03T17:02:13.355Z,8.52
2022-10-03T17:07:23.889Z,7.55
2022-10-03T17:12:33.094Z,5.75
2022-10-03T17:19:31.221Z,7.28
2022-10-03T17:25:05.049Z,7.90
2022-10-03T17:30:22.812Z,8.90
2022-10-03T17:35:34.728Z,10.15
2022-10-03T17:44:56.168Z,8.90
2022-10-03T17:50:14.899Z,7.10
2022-10-03T17:55:39.960Z,8.55
2022-10-03T18:01:22.762Z,9.90
2022-10-03T18:06:49.557Z,9.57
2022-10-03T18:11:52.762Z,8.65
2022-10-03T18:17:13.850Z,10.80
2022-10-03T18:22:41.078Z,13.95
2022-10-03T18:28:22.182Z,6.85
2022-10-03T18:33:30.736Z,6.35
2022-10-03T18:38:35.100Z,6.62
2022-10-03T18:43:44.403Z,8.73
2022-10-03T18:55:14.234Z,11.45
2022-10-03T19:00:19.605Z,9.43
2022-10-03T19:06:17.208Z,9.48
2022-10-03T19:11:35.009Z,7.97
2022-10-03T19:18:37.381Z,9.20
2022-10-03T19:23:42.011Z,5.90
2022-10-03T19:28:48.940Z,10.35
2022-10-03T19:33:52.781Z,6.55
2022-10-03T19:38:54.224Z,6.37
2022-10-03T19:44:00.999Z,6.40
2022-10-03T19:50:53.930Z,7.78
2022-10-03T19:55:54.820Z,8.95
2022-10-03T20:00:58.158Z,6.50
2022-10-03T20:09:31.889Z,6.75
2022-10-03T20:14:34.843Z,6.95
2022-10-03T20:19:54.171Z,5.87
2022-10-03T20:24:55.125Z,6.28
2022-10-03T20:30:56.642Z,6.40
2022-10-03T20:36:16.807Z,6.07
2022-10-03T20:41:38.923Z,5.80
2022-10-03T20:46:53.948Z,5.70
2022-10-03T20:52:01.581Z,6.43
2022-10-03T20:57:14.782Z,7.47
2022-10-03T21:02:29.159Z,6.30
2022-10-03T21:07:53.775Z,6.28
2022-10-03T21:12:59.773Z,5.90
2022-10-03T21:18:01.526Z,5.93
2022-10-03T21:23:13.823Z,7.47
2022-10-03T21:28:28.711Z,6.93
2022-10-03T21:33:38.231Z,6.60
2022-10-03T21:38:42.525Z,6.35
2022-10-03T21:43:49.710Z,6.45
2022-10-03T21:49:50.670Z,6.50
2022-10-03T21:58:10.238Z,6.32
2022-10-03T22:03:29.634Z,6.07
2022-10-03T22:08:34.726Z,6.45
2022-10-03T22:13:38.166Z,6.47
2022-10-03T22:19:15.474Z,6.62
2022-10-03T22:24:28.956Z,6.32
2022-10-03T22:30:03.419Z,7.03
2022-10-03T22:35:51.757Z,6.05
2022-10-03T22:40:54.955Z,6.00
2022-10-03T22:50:59.167Z,6.70
2022-10-03T22:56:30.617Z,6.55
2022-10-03T23:01:34.451Z,5.75
2022-10-03T23:07:01.791Z,6.70
2022-10-03T23:12:03.453Z,7.18
2022-10-03T23:21:33.247Z,9.98
2022-10-03T23:29:33.161Z,6.43
2022-10-03T23:34:45.619Z,6.60
2022-10-03T23:40:47.119Z,6.60
2022-10-03T23:45:51.111Z,7.28
2022-10-03T23:51:05.681Z,6.53
2022-10-03T23:59:38.763Z,6.10
